Terminal Aerodrome Forecast
Issued by NWS

Home | Current Version | Previous Version | Text Only | Print | Product List | Glossary On
Versions: 1 2 3 4 5 6 7 8 9 10 11 12 13 14 15 16 17
000
FTUS41 KPBZ 220100 AAA
TAFBVI
TAF AMD
KBVI 220130Z 2202/2224 33006KT P6SM VCSH BKN008 OVC015
     FM220500 32005KT 5SM BR VCSH BKN006 OVC012
     FM221300 33008KT P6SM BKN015 OVC025
     FM221500 33009KT P6SM BKN025
     FM222100 32008KT P6SM BKN035
      AMD NOT SKED 2201/2211=

USA.gov is the U.S. government's official web portal to all federal, state and local government web resources and services.